sensor_id;sensor_type;location;lat;lon;timestamp;P1;P2;P0
77320;PMS7003;66382;52.252;8.780;2024-03-08T00:00:16;41.50;39.00;26.00
77320;PMS7003;66382;52.252;8.780;2024-03-08T00:02:42;41.25;38.00;26.25
77320;PMS7003;66382;52.252;8.780;2024-03-08T00:05:08;43.50;40.00;25.75
77320;PMS7003;66382;52.252;8.780;2024-03-08T00:07:35;46.25;42.00;27.25
77320;PMS7003;66382;52.252;8.780;2024-03-08T00:10:01;40.75;38.25;26.25
77320;PMS7003;66382;52.252;8.780;2024-03-08T00:12:27;47.75;42.50;27.50
77320;PMS7003;66382;52.252;8.780;2024-03-08T00:14:52;45.25;40.25;26.25
77320;PMS7003;66382;52.252;8.780;2024-03-08T00:17:18;42.75;39.75;26.50
77320;PMS7003;66382;52.252;8.780;2024-03-08T00:19:43;41.00;38.50;24.00
77320;PMS7003;66382;52.252;8.780;2024-03-08T00:22:09;42.00;39.25;26.00
77320;PMS7003;66382;52.252;8.780;2024-03-08T00:24:36;50.00;43.25;27.75
77320;PMS7003;66382;52.252;8.780;2024-03-08T00:27:01;43.50;39.50;25.00
77320;PMS7003;66382;52.252;8.780;2024-03-08T00:29:26;39.75;38.75;27.00
77320;PMS7003;66382;52.252;8.780;2024-03-08T00:31:52;47.75;42.25;27.00
77320;PMS7003;66382;52.252;8.780;2024-03-08T00:34:17;51.50;43.75;27.00
77320;PMS7003;66382;52.252;8.780;2024-03-08T00:36:43;46.00;41.50;28.00
77320;PMS7003;66382;52.252;8.780;2024-03-08T00:39:08;47.00;41.50;27.50
77320;PMS7003;66382;52.252;8.780;2024-03-08T00:41:35;52.25;45.25;28.75
77320;PMS7003;66382;52.252;8.780;2024-03-08T00:44:00;53.00;45.50;29.25
77320;PMS7003;66382;52.252;8.780;2024-03-08T00:46:26;55.50;48.00;29.25
77320;PMS7003;66382;52.252;8.780;2024-03-08T00:48:51;57.25;47.75;29.25
77320;PMS7003;66382;52.252;8.780;2024-03-08T00:51:17;48.00;43.25;28.75
77320;PMS7003;66382;52.252;8.780;2024-03-08T00:53:42;47.75;43.00;27.50
77320;PMS7003;66382;52.252;8.780;2024-03-08T00:56:07;56.25;47.25;29.25
77320;PMS7003;66382;52.252;8.780;2024-03-08T00:58:34;47.75;42.50;27.75
77320;PMS7003;66382;52.252;8.780;2024-03-08T01:01:01;48.75;43.75;30.00
77320;PMS7003;66382;52.252;8.780;2024-03-08T01:03:26;50.50;44.50;27.75
77320;PMS7003;66382;52.252;8.780;2024-03-08T01:05:52;53.25;45.25;28.50
77320;PMS7003;66382;52.252;8.780;2024-03-08T01:08:17;50.75;43.25;28.25
77320;PMS7003;66382;52.252;8.780;2024-03-08T01:10:43;44.25;41.00;28.00
77320;PMS7003;66382;52.252;8.780;2024-03-08T01:13:08;50.00;44.25;28.50
77320;PMS7003;66382;52.252;8.780;2024-03-08T01:15:35;50.75;43.25;26.25
77320;PMS7003;66382;52.252;8.780;2024-03-08T01:18:00;44.50;41.50;29.50
77320;PMS7003;66382;52.252;8.780;2024-03-08T01:20:26;49.75;44.50;28.00
77320;PMS7003;66382;52.252;8.780;2024-03-08T01:22:51;52.25;46.00;30.00
77320;PMS7003;66382;52.252;8.780;2024-03-08T01:25:17;46.75;41.75;27.00
77320;PMS7003;66382;52.252;8.780;2024-03-08T01:27:42;47.50;43.25;27.25
77320;PMS7003;66382;52.252;8.780;2024-03-08T01:30:08;46.25;42.00;27.50
77320;PMS7003;66382;52.252;8.780;2024-03-08T01:32:35;42.75;39.50;25.50
77320;PMS7003;66382;52.252;8.780;2024-03-08T01:35:00;48.00;42.50;27.25
77320;PMS7003;66382;52.252;8.780;2024-03-08T01:37:26;43.00;40.00;26.75
77320;PMS7003;66382;52.252;8.780;2024-03-08T01:39:51;49.50;44.00;28.25
77320;PMS7003;66382;52.252;8.780;2024-03-08T01:42:17;47.00;43.00;28.25
77320;PMS7003;66382;52.252;8.780;2024-03-08T01:44:42;43.25;39.50;26.00
77320;PMS7003;66382;52.252;8.780;2024-03-08T01:47:07;44.50;40.25;27.00
77320;PMS7003;66382;52.252;8.780;2024-03-08T01:49:34;47.00;41.75;28.00
77320;PMS7003;66382;52.252;8.780;2024-03-08T01:52:00;48.00;42.50;27.25
77320;PMS7003;66382;52.252;8.780;2024-03-08T01:54:25;47.00;42.25;26.25
77320;PMS7003;66382;52.252;8.780;2024-03-08T01:56:51;39.25;37.50;24.25
77320;PMS7003;66382;52.252;8.780;2024-03-08T01:59:17;51.75;45.50;27.00
77320;PMS7003;66382;52.252;8.780;2024-03-08T02:01:43;43.25;40.25;27.00
77320;PMS7003;66382;52.252;8.780;2024-03-08T02:04:08;43.75;40.50;24.50
77320;PMS7003;66382;52.252;8.780;2024-03-08T02:06:36;52.25;43.50;26.75
77320;PMS7003;66382;52.252;8.780;2024-03-08T02:09:02;45.50;41.00;25.50
77320;PMS7003;66382;52.252;8.780;2024-03-08T02:11:27;44.25;39.50;27.00
77320;PMS7003;66382;52.252;8.780;2024-03-08T02:13:53;44.00;40.25;25.25
77320;PMS7003;66382;52.252;8.780;2024-03-08T02:16:20;45.75;40.75;25.00
77320;PMS7003;66382;52.252;8.780;2024-03-08T02:18:46;54.75;47.25;29.75
77320;PMS7003;66382;52.252;8.780;2024-03-08T02:21:12;42.75;40.25;26.75
77320;PMS7003;66382;52.252;8.780;2024-03-08T02:23:41;50.50;43.50;29.00
77320;PMS7003;66382;52.252;8.780;2024-03-08T02:26:06;47.75;42.75;27.75
77320;PMS7003;66382;52.252;8.780;2024-03-08T02:28:32;45.75;41.50;25.50
77320;PMS7003;66382;52.252;8.780;2024-03-08T02:30:58;45.50;39.50;27.25
77320;PMS7003;66382;52.252;8.780;2024-03-08T02:33:23;46.00;42.00;28.25
77320;PMS7003;66382;52.252;8.780;2024-03-08T02:35:49;47.25;40.50;26.50
77320;PMS7003;66382;52.252;8.780;2024-03-08T02:38:16;46.75;42.00;27.50
77320;PMS7003;66382;52.252;8.780;2024-03-08T02:40:43;38.50;36.25;24.50
77320;PMS7003;66382;52.252;8.780;2024-03-08T02:43:09;47.00;41.75;26.00
77320;PMS7003;66382;52.252;8.780;2024-03-08T02:45:35;44.00;40.50;27.25
77320;PMS7003;66382;52.252;8.780;2024-03-08T02:48:00;49.00;43.75;28.00
77320;PMS7003;66382;52.252;8.780;2024-03-08T02:50:26;49.50;44.00;28.00
77320;PMS7003;66382;52.252;8.780;2024-03-08T02:52:51;46.25;41.50;27.00
77320;PMS7003;66382;52.252;8.780;2024-03-08T02:55:18;46.50;42.25;27.00
77320;PMS7003;66382;52.252;8.780;2024-03-08T02:57:43;45.50;40.75;27.75
77320;PMS7003;66382;52.252;8.780;2024-03-08T03:00:09;44.50;40.50;26.75
77320;PMS7003;66382;52.252;8.780;2024-03-08T03:02:35;45.25;39.50;26.25
77320;PMS7003;66382;52.252;8.780;2024-03-08T03:05:01;48.25;40.00;25.75
77320;PMS7003;66382;52.252;8.780;2024-03-08T03:07:26;49.00;43.75;27.50
77320;PMS7003;66382;52.252;8.780;2024-03-08T03:09:51;49.25;41.75;27.75
77320;PMS7003;66382;52.252;8.780;2024-03-08T03:12:19;47.75;43.00;27.50
77320;PMS7003;66382;52.252;8.780;2024-03-08T03:14:45;39.50;38.50;26.50
77320;PMS7003;66382;52.252;8.780;2024-03-08T03:17:10;45.50;41.75;27.00
77320;PMS7003;66382;52.252;8.780;2024-03-08T03:19:36;46.50;42.25;28.00
77320;PMS7003;66382;52.252;8.780;2024-03-08T03:22:01;40.50;38.75;26.75
77320;PMS7003;66382;52.252;8.780;2024-03-08T03:24:27;47.75;43.00;27.00
77320;PMS7003;66382;52.252;8.780;2024-03-08T03:26:52;45.50;41.75;27.00
77320;PMS7003;66382;52.252;8.780;2024-03-08T03:29:19;42.25;39.75;27.00
77320;PMS7003;66382;52.252;8.780;2024-03-08T03:31:44;46.75;42.50;27.00
77320;PMS7003;66382;52.252;8.780;2024-03-08T03:34:10;49.25;44.25;28.00
77320;PMS7003;66382;52.252;8.780;2024-03-08T03:36:35;44.75;39.50;25.75
77320;PMS7003;66382;52.252;8.780;2024-03-08T03:39:01;45.50;40.00;28.00
77320;PMS7003;66382;52.252;8.780;2024-03-08T03:41:26;51.75;45.75;28.00
77320;PMS7003;66382;52.252;8.780;2024-03-08T03:43:51;44.50;41.00;27.00
77320;PMS7003;66382;52.252;8.780;2024-03-08T03:46:18;47.50;41.50;25.25
77320;PMS7003;66382;52.252;8.780;2024-03-08T03:48:44;50.00;43.75;27.00
77320;PMS7003;66382;52.252;8.780;2024-03-08T03:54:12;56.75;49.00;27.25
77320;PMS7003;66382;52.252;8.780;2024-03-08T03:56:37;50.75;44.75;28.00
77320;PMS7003;66382;52.252;8.780;2024-03-08T03:59:03;55.00;47.50;28.00
77320;PMS7003;66382;52.252;8.780;2024-03-08T04:01:30;35.00;35.00;24.50
77320;PMS7003;66382;52.252;8.780;2024-03-08T04:03:55;55.25;47.00;29.50
77320;PMS7003;66382;52.252;8.780;2024-03-08T04:06:21;52.00;43.75;29.25
77320;PMS7003;66382;52.252;8.780;2024-03-08T04:08:46;48.00;41.50;25.75
77320;PMS7003;66382;52.252;8.780;2024-03-08T04:11:11;49.00;43.25;24.50
77320;PMS7003;66382;52.252;8.780;2024-03-08T04:13:37;50.50;45.00;28.50
77320;PMS7003;66382;52.252;8.780;2024-03-08T04:16:02;54.00;47.00;28.75
77320;PMS7003;66382;52.252;8.780;2024-03-08T04:18:30;55.25;46.75;29.25
77320;PMS7003;66382;52.252;8.780;2024-03-08T04:20:55;42.50;39.75;24.25
77320;PMS7003;66382;52.252;8.780;2024-03-08T04:23:20;49.25;43.75;28.75
77320;PMS7003;66382;52.252;8.780;2024-03-08T04:25:46;45.50;42.00;28.25
77320;PMS7003;66382;52.252;8.780;2024-03-08T04:28:11;56.25;45.75;27.00
77320;PMS7003;66382;52.252;8.780;2024-03-08T04:30:37;56.25;48.25;30.00
77320;PMS7003;66382;52.252;8.780;2024-03-08T04:33:02;54.50;46.00;29.25
77320;PMS7003;66382;52.252;8.780;2024-03-08T04:35:30;52.67;46.00;30.00
77320;PMS7003;66382;52.252;8.780;2024-03-08T04:37:55;52.00;44.75;28.25
77320;PMS7003;66382;52.252;8.780;2024-03-08T04:40:20;56.00;46.00;28.25
77320;PMS7003;66382;52.252;8.780;2024-03-08T04:42:46;53.75;47.00;29.75
77320;PMS7003;66382;52.252;8.780;2024-03-08T04:45:11;52.50;45.00;27.00
77320;PMS7003;66382;52.252;8.780;2024-03-08T04:47:37;56.50;47.50;30.00
77320;PMS7003;66382;52.252;8.780;2024-03-08T04:50:02;52.75;46.50;31.00
77320;PMS7003;66382;52.252;8.780;2024-03-08T04:52:29;58.50;48.75;29.50
77320;PMS7003;66382;52.252;8.780;2024-03-08T04:54:55;58.00;48.33;31.00
77320;PMS7003;66382;52.252;8.780;2024-03-08T04:57:20;52.00;45.50;30.00
77320;PMS7003;66382;52.252;8.780;2024-03-08T04:59:46;49.67;43.67;29.33
77320;PMS7003;66382;52.252;8.780;2024-03-08T05:02:11;53.75;47.00;29.50
77320;PMS7003;66382;52.252;8.780;2024-03-08T05:04:36;50.50;43.75;29.50
77320;PMS7003;66382;52.252;8.780;2024-03-08T05:07:02;57.67;49.33;32.33
77320;PMS7003;66382;52.252;8.780;2024-03-08T05:09:29;44.00;40.75;29.00
77320;PMS7003;66382;52.252;8.780;2024-03-08T05:11:54;51.33;45.00;28.33
77320;PMS7003;66382;52.252;8.780;2024-03-08T05:14:20;53.00;43.67;30.00
77320;PMS7003;66382;52.252;8.780;2024-03-08T05:16:45;58.00;48.50;28.25
77320;PMS7003;66382;52.252;8.780;2024-03-08T05:19:11;56.25;47.25;29.50
77320;PMS7003;66382;52.252;8.780;2024-03-08T05:21:36;54.33;47.33;30.00
77320;PMS7003;66382;52.252;8.780;2024-03-08T05:24:02;57.67;49.67;27.33
77320;PMS7003;66382;52.252;8.780;2024-03-08T05:26:29;51.00;45.00;27.25
77320;PMS7003;66382;52.252;8.780;2024-03-08T05:28:54;45.33;41.67;25.33
77320;PMS7003;66382;52.252;8.780;2024-03-08T05:31:20;53.25;46.75;30.00
77320;PMS7003;66382;52.252;8.780;2024-03-08T05:33:45;57.00;49.00;27.33
77320;PMS7003;66382;52.252;8.780;2024-03-08T05:36:10;56.33;47.33;28.67
77320;PMS7003;66382;52.252;8.780;2024-03-08T05:38:36;51.33;45.33;28.00
77320;PMS7003;66382;52.252;8.780;2024-03-08T05:41:01;54.67;47.67;29.00
77320;PMS7003;66382;52.252;8.780;2024-03-08T05:43:28;60.33;51.67;32.33
77320;PMS7003;66382;52.252;8.780;2024-03-08T05:45:54;28.50;27.00;10.75
77320;PMS7003;66382;52.252;8.780;2024-03-08T05:48:19;53.33;46.00;31.33
77320;PMS7003;66382;52.252;8.780;2024-03-08T05:50:45;56.33;48.00;31.00
77320;PMS7003;66382;52.252;8.780;2024-03-08T05:53:10;55.00;44.33;29.33
77320;PMS7003;66382;52.252;8.780;2024-03-08T05:55:36;56.33;48.33;30.67
77320;PMS7003;66382;52.252;8.780;2024-03-08T05:58:01;53.67;45.67;29.00
77320;PMS7003;66382;52.252;8.780;2024-03-08T06:00:28;55.33;48.33;30.33
77320;PMS7003;66382;52.252;8.780;2024-03-08T06:02:53;60.33;49.00;33.00
77320;PMS7003;66382;52.252;8.780;2024-03-08T06:05:19;61.67;52.67;30.33
77320;PMS7003;66382;52.252;8.780;2024-03-08T06:07:45;55.33;47.67;30.00
77320;PMS7003;66382;52.252;8.780;2024-03-08T06:10:10;59.33;50.33;32.00
77320;PMS7003;66382;52.252;8.780;2024-03-08T06:12:36;59.67;51.00;32.33
77320;PMS7003;66382;52.252;8.780;2024-03-08T06:15:02;53.00;46.33;30.00
77320;PMS7003;66382;52.252;8.780;2024-03-08T06:17:29;58.33;50.00;32.33
77320;PMS7003;66382;52.252;8.780;2024-03-08T06:19:55;56.33;48.00;32.33
77320;PMS7003;66382;52.252;8.780;2024-03-08T06:22:20;60.67;50.33;32.33
77320;PMS7003;66382;52.252;8.780;2024-03-08T06:24:47;60.67;52.00;32.00
77320;PMS7003;66382;52.252;8.780;2024-03-08T06:27:12;58.33;49.33;30.00
77320;PMS7003;66382;52.252;8.780;2024-03-08T06:29:37;59.00;50.00;30.33
77320;PMS7003;66382;52.252;8.780;2024-03-08T06:32:03;56.00;48.00;29.00
77320;PMS7003;66382;52.252;8.780;2024-03-08T06:34:30;56.33;49.33;30.00
77320;PMS7003;66382;52.252;8.780;2024-03-08T06:36:57;61.00;50.67;31.33
77320;PMS7003;66382;52.252;8.780;2024-03-08T06:39:23;57.67;49.67;30.67
77320;PMS7003;66382;52.252;8.780;2024-03-08T06:41:48;52.67;46.00;30.33
77320;PMS7003;66382;52.252;8.780;2024-03-08T06:44:14;62.33;51.33;31.00
77320;PMS7003;66382;52.252;8.780;2024-03-08T06:46:39;62.67;54.00;33.33
77320;PMS7003;66382;52.252;8.780;2024-03-08T06:49:04;59.67;51.00;30.67
77320;PMS7003;66382;52.252;8.780;2024-03-08T06:51:31;60.33;51.33;30.67
77320;PMS7003;66382;52.252;8.780;2024-03-08T06:53:57;55.00;47.33;30.00
77320;PMS7003;66382;52.252;8.780;2024-03-08T06:56:22;58.33;49.33;32.00
77320;PMS7003;66382;52.252;8.780;2024-03-08T06:58:48;60.25;49.75;30.00
77320;PMS7003;66382;52.252;8.780;2024-03-08T07:01:13;60.25;50.00;32.00
77320;PMS7003;66382;52.252;8.780;2024-03-08T07:03:38;56.75;48.25;31.00
77320;PMS7003;66382;52.252;8.780;2024-03-08T07:06:04;55.00;47.50;29.25
77320;PMS7003;66382;52.252;8.780;2024-03-08T07:08:31;54.50;46.50;31.00
77320;PMS7003;66382;52.252;8.780;2024-03-08T07:10:57;39.75;37.50;21.25
77320;PMS7003;66382;52.252;8.780;2024-03-08T07:13:22;37.75;35.25;21.75
77320;PMS7003;66382;52.252;8.780;2024-03-08T07:15:48;51.00;43.75;29.25
77320;PMS7003;66382;52.252;8.780;2024-03-08T07:18:13;51.50;43.75;29.25
77320;PMS7003;66382;52.252;8.780;2024-03-08T07:20:38;51.25;44.25;27.00
77320;PMS7003;66382;52.252;8.780;2024-03-08T07:23:04;47.50;41.00;22.75
77320;PMS7003;66382;52.252;8.780;2024-03-08T07:25:31;53.00;44.75;29.00
77320;PMS7003;66382;52.252;8.780;2024-03-08T07:27:56;38.00;35.25;27.50
77320;PMS7003;66382;52.252;8.780;2024-03-08T07:30:23;40.50;37.00;25.50
77320;PMS7003;66382;52.252;8.780;2024-03-08T07:32:49;43.00;38.50;24.50
77320;PMS7003;66382;52.252;8.780;2024-03-08T07:35:14;53.50;45.75;29.00
77320;PMS7003;66382;52.252;8.780;2024-03-08T07:37:40;46.75;41.00;26.75
77320;PMS7003;66382;52.252;8.780;2024-03-08T07:40:06;45.75;38.25;26.00
77320;PMS7003;66382;52.252;8.780;2024-03-08T07:42:33;45.00;39.50;26.00
77320;PMS7003;66382;52.252;8.780;2024-03-08T07:44:59;48.50;42.00;28.00
77320;PMS7003;66382;52.252;8.780;2024-03-08T07:47:24;51.00;41.50;26.00
77320;PMS7003;66382;52.252;8.780;2024-03-08T07:49:50;48.25;41.00;25.75
77320;PMS7003;66382;52.252;8.780;2024-03-08T07:52:15;43.50;38.25;28.00
77320;PMS7003;66382;52.252;8.780;2024-03-08T07:54:41;46.25;39.75;27.00
77320;PMS7003;66382;52.252;8.780;2024-03-08T07:57:06;49.00;42.25;26.75
77320;PMS7003;66382;52.252;8.780;2024-03-08T07:59:33;48.75;41.50;27.25
77320;PMS7003;66382;52.252;8.780;2024-03-08T08:01:58;51.25;41.25;25.50
77320;PMS7003;66382;52.252;8.780;2024-03-08T08:04:24;44.50;38.75;27.25
77320;PMS7003;66382;52.252;8.780;2024-03-08T08:06:50;51.25;43.75;28.00
77320;PMS7003;66382;52.252;8.780;2024-03-08T08:09:15;47.25;40.25;25.75
77320;PMS7003;66382;52.252;8.780;2024-03-08T08:11:41;48.50;42.25;25.50
77320;PMS7003;66382;52.252;8.780;2024-03-08T08:14:06;41.00;37.00;23.25
77320;PMS7003;66382;52.252;8.780;2024-03-08T08:16:33;50.50;42.50;28.00
77320;PMS7003;66382;52.252;8.780;2024-03-08T08:18:58;50.75;42.50;27.75
77320;PMS7003;66382;52.252;8.780;2024-03-08T08:21:24;47.25;40.75;26.75
77320;PMS7003;66382;52.252;8.780;2024-03-08T08:23:49;48.75;41.50;28.00
77320;PMS7003;66382;52.252;8.780;2024-03-08T08:26:15;49.00;41.25;27.00
77320;PMS7003;66382;52.252;8.780;2024-03-08T08:28:40;47.00;39.75;24.25
77320;PMS7003;66382;52.252;8.780;2024-03-08T08:31:05;47.50;40.00;25.75
77320;PMS7003;66382;52.252;8.780;2024-03-08T08:33:33;46.00;39.75;28.00
77320;PMS7003;66382;52.252;8.780;2024-03-08T08:35:59;41.25;36.50;23.00
77320;PMS7003;66382;52.252;8.780;2024-03-08T08:38:24;46.50;39.00;24.75
77320;PMS7003;66382;52.252;8.780;2024-03-08T08:40:50;44.50;38.50;24.25
77320;PMS7003;66382;52.252;8.780;2024-03-08T08:43:15;52.00;42.75;27.00
77320;PMS7003;66382;52.252;8.780;2024-03-08T08:45:41;48.50;41.00;26.00
77320;PMS7003;66382;52.252;8.780;2024-03-08T08:48:06;55.00;46.00;28.00
77320;PMS7003;66382;52.252;8.780;2024-03-08T08:50:33;48.00;40.25;27.25
77320;PMS7003;66382;52.252;8.780;2024-03-08T08:52:58;51.00;43.75;27.25
77320;PMS7003;66382;52.252;8.780;2024-03-08T08:55:24;47.25;40.75;27.00
77320;PMS7003;66382;52.252;8.780;2024-03-08T08:57:49;46.00;40.00;27.00
77320;PMS7003;66382;52.252;8.780;2024-03-08T09:00:15;29.50;29.25;20.00
77320;PMS7003;66382;52.252;8.780;2024-03-08T09:02:41;41.25;36.25;24.00
77320;PMS7003;66382;52.252;8.780;2024-03-08T09:05:07;31.75;30.75;22.25
77320;PMS7003;66382;52.252;8.780;2024-03-08T09:07:34;50.50;41.50;26.75
77320;PMS7003;66382;52.252;8.780;2024-03-08T09:09:59;42.25;35.00;23.50
77320;PMS7003;66382;52.252;8.780;2024-03-08T09:12:25;43.00;37.75;26.00
77320;PMS7003;66382;52.252;8.780;2024-03-08T09:14:51;44.25;38.25;24.75
77320;PMS7003;66382;52.252;8.780;2024-03-08T09:17:16;46.50;39.75;24.00
77320;PMS7003;66382;52.252;8.780;2024-03-08T09:19:41;47.25;41.00;26.00
77320;PMS7003;66382;52.252;8.780;2024-03-08T09:22:07;50.75;42.75;27.00
77320;PMS7003;66382;52.252;8.780;2024-03-08T09:24:34;34.50;32.50;22.00
77320;PMS7003;66382;52.252;8.780;2024-03-08T09:26:59;44.75;38.50;26.75
77320;PMS7003;66382;52.252;8.780;2024-03-08T09:29:25;43.75;37.75;23.00
77320;PMS7003;66382;52.252;8.780;2024-03-08T09:31:50;50.25;41.00;26.00
77320;PMS7003;66382;52.252;8.780;2024-03-08T09:34:15;48.25;41.00;26.25
77320;PMS7003;66382;52.252;8.780;2024-03-08T09:36:41;49.00;41.75;27.50
77320;PMS7003;66382;52.252;8.780;2024-03-08T09:39:06;49.00;41.75;27.75
77320;PMS7003;66382;52.252;8.780;2024-03-08T09:41:33;43.50;37.75;25.75
77320;PMS7003;66382;52.252;8.780;2024-03-08T09:43:59;45.75;39.50;26.25
77320;PMS7003;66382;52.252;8.780;2024-03-08T09:46:24;47.00;39.50;26.00
77320;PMS7003;66382;52.252;8.780;2024-03-08T09:48:50;44.75;38.75;25.50
77320;PMS7003;66382;52.252;8.780;2024-03-08T09:51:15;47.75;40.75;26.00
77320;PMS7003;66382;52.252;8.780;2024-03-08T09:53:41;44.75;38.25;25.50
77320;PMS7003;66382;52.252;8.780;2024-03-08T09:56:06;48.25;40.50;25.50
77320;PMS7003;66382;52.252;8.780;2024-03-08T09:58:33;44.25;38.25;26.00
77320;PMS7003;66382;52.252;8.780;2024-03-08T10:00:59;47.75;41.25;27.00
77320;PMS7003;66382;52.252;8.780;2024-03-08T10:03:24;47.25;40.50;26.00
77320;PMS7003;66382;52.252;8.780;2024-03-08T10:05:50;50.25;42.50;28.00
77320;PMS7003;66382;52.252;8.780;2024-03-08T10:08:15;45.50;38.50;26.00
77320;PMS7003;66382;52.252;8.780;2024-03-08T10:10:40;47.25;40.50;27.00
77320;PMS7003;66382;52.252;8.780;2024-03-08T10:13:06;48.50;41.25;26.00
77320;PMS7003;66382;52.252;8.780;2024-03-08T10:15:33;46.75;39.75;26.00
77320;PMS7003;66382;52.252;8.780;2024-03-08T10:17:59;47.00;40.25;26.00
77320;PMS7003;66382;52.252;8.780;2024-03-08T10:20:24;45.50;39.00;24.75
77320;PMS7003;66382;52.252;8.780;2024-03-08T10:22:50;49.25;42.00;26.75
77320;PMS7003;66382;52.252;8.780;2024-03-08T10:25:16;47.50;41.00;27.75
77320;PMS7003;66382;52.252;8.780;2024-03-08T10:27:42;41.75;36.75;24.00
77320;PMS7003;66382;52.252;8.780;2024-03-08T10:30:08;47.50;40.25;26.75
77320;PMS7003;66382;52.252;8.780;2024-03-08T10:32:39;44.25;38.50;26.00
77320;PMS7003;66382;52.252;8.780;2024-03-08T10:35:05;48.00;40.00;25.75
77320;PMS7003;66382;52.252;8.780;2024-03-08T10:37:31;43.75;38.25;25.00
77320;PMS7003;66382;52.252;8.780;2024-03-08T10:39:58;45.25;39.25;25.50
77320;PMS7003;66382;52.252;8.780;2024-03-08T10:42:28;45.00;38.75;26.00
77320;PMS7003;66382;52.252;8.780;2024-03-08T10:44:57;46.75;39.25;25.25
77320;PMS7003;66382;52.252;8.780;2024-03-08T10:47:30;48.00;41.00;26.00
77320;PMS7003;66382;52.252;8.780;2024-03-08T10:50:03;41.75;36.25;23.00
77320;PMS7003;66382;52.252;8.780;2024-03-08T10:52:35;38.00;34.00;24.00
77320;PMS7003;66382;52.252;8.780;2024-03-08T10:55:01;35.50;33.00;22.75
77320;PMS7003;66382;52.252;8.780;2024-03-08T10:57:27;44.25;38.75;23.75
77320;PMS7003;66382;52.252;8.780;2024-03-08T10:59:53;43.50;37.00;24.25
77320;PMS7003;66382;52.252;8.780;2024-03-08T11:02:20;33.50;32.00;20.75
77320;PMS7003;66382;52.252;8.780;2024-03-08T11:04:46;42.25;37.25;24.25
77320;PMS7003;66382;52.252;8.780;2024-03-08T11:07:13;36.25;34.00;22.25
77320;PMS7003;66382;52.252;8.780;2024-03-08T11:09:38;33.00;32.00;21.25
77320;PMS7003;66382;52.252;8.780;2024-03-08T11:12:23;38.50;35.50;23.75
77320;PMS7003;66382;52.252;8.780;2024-03-08T11:14:50;36.50;34.25;22.75
77320;PMS7003;66382;52.252;8.780;2024-03-08T11:17:20;38.25;34.75;23.25
77320;PMS7003;66382;52.252;8.780;2024-03-08T11:19:46;40.00;36.75;24.00
77320;PMS7003;66382;52.252;8.780;2024-03-08T11:22:21;38.75;35.75;22.25
77320;PMS7003;66382;52.252;8.780;2024-03-08T11:24:47;44.50;37.75;24.00
77320;PMS7003;66382;52.252;8.780;2024-03-08T11:27:13;36.50;34.00;21.50
77320;PMS7003;66382;52.252;8.780;2024-03-08T11:29:38;31.50;31.25;21.00
77320;PMS7003;66382;52.252;8.780;2024-03-08T11:32:04;36.75;33.25;23.00
77320;PMS7003;66382;52.252;8.780;2024-03-08T11:34:32;42.00;37.25;25.00
77320;PMS7003;66382;52.252;8.780;2024-03-08T11:36:57;30.25;30.25;21.00
77320;PMS7003;66382;52.252;8.780;2024-03-08T11:39:24;43.75;37.75;24.00
77320;PMS7003;66382;52.252;8.780;2024-03-08T11:41:50;29.50;29.50;21.00
77320;PMS7003;66382;52.252;8.780;2024-03-08T11:44:16;40.25;36.75;24.25
77320;PMS7003;66382;52.252;8.780;2024-03-08T11:46:41;39.50;36.00;23.00
77320;PMS7003;66382;52.252;8.780;2024-03-08T11:49:07;37.75;34.00;23.00
77320;PMS7003;66382;52.252;8.780;2024-03-08T11:51:32;46.00;40.00;25.00
77320;PMS7003;66382;52.252;8.780;2024-03-08T11:53:58;39.25;36.00;23.50
77320;PMS7003;66382;52.252;8.780;2024-03-08T11:56:25;43.50;38.00;23.00
77320;PMS7003;66382;52.252;8.780;2024-03-08T11:58:54;44.25;39.00;24.00
77320;PMS7003;66382;52.252;8.780;2024-03-08T12:01:20;48.75;42.00;25.50
77320;PMS7003;66382;52.252;8.780;2024-03-08T12:03:45;47.00;40.00;23.75
77320;PMS7003;66382;52.252;8.780;2024-03-08T12:06:17;44.50;39.50;26.25
77320;PMS7003;66382;52.252;8.780;2024-03-08T12:08:43;47.50;41.50;25.50
77320;PMS7003;66382;52.252;8.780;2024-03-08T12:11:08;46.00;40.00;27.00
77320;PMS7003;66382;52.252;8.780;2024-03-08T12:13:35;47.25;41.25;26.75
77320;PMS7003;66382;52.252;8.780;2024-03-08T12:16:01;46.50;40.75;25.25
77320;PMS7003;66382;52.252;8.780;2024-03-08T12:18:27;51.00;41.25;26.00
77320;PMS7003;66382;52.252;8.780;2024-03-08T12:21:03;47.00;40.75;26.75
77320;PMS7003;66382;52.252;8.780;2024-03-08T12:23:29;35.50;32.25;21.25
77320;PMS7003;66382;52.252;8.780;2024-03-08T12:25:54;42.00;38.00;25.00
77320;PMS7003;66382;52.252;8.780;2024-03-08T12:28:20;46.75;40.00;25.50
77320;PMS7003;66382;52.252;8.780;2024-03-08T12:30:47;43.50;38.50;25.00
77320;PMS7003;66382;52.252;8.780;2024-03-08T12:33:13;48.00;40.25;25.50
77320;PMS7003;66382;52.252;8.780;2024-03-08T12:35:39;45.75;39.25;25.00
77320;PMS7003;66382;52.252;8.780;2024-03-08T12:38:05;46.25;40.25;25.00
77320;PMS7003;66382;52.252;8.780;2024-03-08T12:40:32;43.25;36.75;24.00
77320;PMS7003;66382;52.252;8.780;2024-03-08T12:42:59;35.75;33.75;23.25
77320;PMS7003;66382;52.252;8.780;2024-03-08T12:45:24;43.50;38.50;24.00
77320;PMS7003;66382;52.252;8.780;2024-03-08T12:47:51;41.00;36.75;23.25
77320;PMS7003;66382;52.252;8.780;2024-03-08T12:50:17;35.00;33.25;22.50
77320;PMS7003;66382;52.252;8.780;2024-03-08T12:52:43;43.00;37.00;25.00
77320;PMS7003;66382;52.252;8.780;2024-03-08T12:55:08;43.50;37.50;24.00
77320;PMS7003;66382;52.252;8.780;2024-03-08T12:57:34;46.75;39.75;26.25
77320;PMS7003;66382;52.252;8.780;2024-03-08T13:00:01;37.00;34.00;23.50
77320;PMS7003;66382;52.252;8.780;2024-03-08T13:02:27;46.50;40.00;25.25
77320;PMS7003;66382;52.252;8.780;2024-03-08T13:04:54;33.00;32.00;21.00
77320;PMS7003;66382;52.252;8.780;2024-03-08T13:07:19;47.00;40.50;25.75
77320;PMS7003;66382;52.252;8.780;2024-03-08T13:09:45;47.25;40.50;25.00
77320;PMS7003;66382;52.252;8.780;2024-03-08T13:12:11;45.50;40.00;26.25
77320;PMS7003;66382;52.252;8.780;2024-03-08T13:14:36;45.25;40.00;25.25
77320;PMS7003;66382;52.252;8.780;2024-03-08T13:17:02;39.50;36.00;25.75
77320;PMS7003;66382;52.252;8.780;2024-03-08T13:19:27;43.75;38.25;25.00
77320;PMS7003;66382;52.252;8.780;2024-03-08T13:21:54;44.25;37.75;25.50
77320;PMS7003;66382;52.252;8.780;2024-03-08T13:24:20;46.50;40.00;25.75
77320;PMS7003;66382;52.252;8.780;2024-03-08T13:26:45;44.25;38.75;25.25
77320;PMS7003;66382;52.252;8.780;2024-03-08T13:29:11;44.50;38.50;24.00
77320;PMS7003;66382;52.252;8.780;2024-03-08T13:31:37;39.75;36.50;25.25
77320;PMS7003;66382;52.252;8.780;2024-03-08T13:34:02;43.75;37.50;25.00
77320;PMS7003;66382;52.252;8.780;2024-03-08T13:36:28;41.25;36.50;25.00
77320;PMS7003;66382;52.252;8.780;2024-03-08T13:38:54;43.50;38.00;23.25
77320;PMS7003;66382;52.252;8.780;2024-03-08T13:41:20;44.00;39.00;25.00